sensor_id;sensor_type;location;lat;lon;timestamp;P1;durP1;ratioP1;P2;durP2;ratioP2
54139;SDS011;40046;53.254;5.900;2022-12-18T00:01:06;78.05;;;35.83;;
54139;SDS011;40046;53.254;5.900;2022-12-18T00:03:39;71.68;;;34.60;;
54139;SDS011;40046;53.254;5.900;2022-12-18T00:06:05;72.55;;;33.72;;
54139;SDS011;40046;53.254;5.900;2022-12-18T00:08:31;75.28;;;32.72;;
54139;SDS011;40046;53.254;5.900;2022-12-18T00:11:05;74.97;;;37.05;;
54139;SDS011;40046;53.254;5.900;2022-12-18T00:13:32;78.88;;;36.60;;
54139;SDS011;40046;53.254;5.900;2022-12-18T00:16:02;80.30;;;36.83;;
54139;SDS011;40046;53.254;5.900;2022-12-18T00:18:28;75.93;;;34.85;;
54139;SDS011;40046;53.254;5.900;2022-12-18T00:20:57;79.88;;;39.42;;
54139;SDS011;40046;53.254;5.900;2022-12-18T00:23:24;74.40;;;36.85;;
54139;SDS011;40046;53.254;5.900;2022-12-18T00:25:50;79.97;;;37.95;;
54139;SDS011;40046;53.254;5.900;2022-12-18T00:28:16;75.55;;;37.67;;
54139;SDS011;40046;53.254;5.900;2022-12-18T00:30:42;74.22;;;34.88;;
54139;SDS011;40046;53.254;5.900;2022-12-18T00:33:08;74.00;;;35.50;;
54139;SDS011;40046;53.254;5.900;2022-12-18T00:35:34;70.00;;;35.28;;
54139;SDS011;40046;53.254;5.900;2022-12-18T00:38:01;75.45;;;35.35;;
54139;SDS011;40046;53.254;5.900;2022-12-18T00:40:27;68.50;;;34.65;;
54139;SDS011;40046;53.254;5.900;2022-12-18T00:42:53;69.00;;;36.55;;
54139;SDS011;40046;53.254;5.900;2022-12-18T00:45:23;70.85;;;33.53;;
54139;SDS011;40046;53.254;5.900;2022-12-18T00:47:50;70.93;;;33.17;;
54139;SDS011;40046;53.254;5.900;2022-12-18T00:50:16;74.53;;;35.50;;
54139;SDS011;40046;53.254;5.900;2022-12-18T00:52:43;82.15;;;36.75;;
54139;SDS011;40046;53.254;5.900;2022-12-18T00:55:09;71.78;;;36.88;;
54139;SDS011;40046;53.254;5.900;2022-12-18T00:57:36;72.38;;;32.53;;
54139;SDS011;40046;53.254;5.900;2022-12-18T01:00:03;68.53;;;33.40;;
54139;SDS011;40046;53.254;5.900;2022-12-18T01:02:29;73.25;;;37.72;;
54139;SDS011;40046;53.254;5.900;2022-12-18T01:04:56;68.97;;;33.17;;
54139;SDS011;40046;53.254;5.900;2022-12-18T01:07:22;79.45;;;34.88;;
54139;SDS011;40046;53.254;5.900;2022-12-18T01:09:48;72.55;;;33.35;;
54139;SDS011;40046;53.254;5.900;2022-12-18T01:12:14;72.78;;;34.58;;
54139;SDS011;40046;53.254;5.900;2022-12-18T01:14:40;71.43;;;34.67;;
54139;SDS011;40046;53.254;5.900;2022-12-18T01:17:06;73.60;;;35.08;;
54139;SDS011;40046;53.254;5.900;2022-12-18T01:19:32;68.07;;;33.90;;
54139;SDS011;40046;53.254;5.900;2022-12-18T01:21:59;77.82;;;36.00;;
54139;SDS011;40046;53.254;5.900;2022-12-18T01:24:25;66.78;;;33.08;;
54139;SDS011;40046;53.254;5.900;2022-12-18T01:26:51;73.80;;;36.28;;
54139;SDS011;40046;53.254;5.900;2022-12-18T01:29:17;63.88;;;32.50;;
54139;SDS011;40046;53.254;5.900;2022-12-18T01:31:44;60.33;;;32.10;;
54139;SDS011;40046;53.254;5.900;2022-12-18T01:34:10;74.78;;;35.70;;
54139;SDS011;40046;53.254;5.900;2022-12-18T01:36:37;70.00;;;33.95;;
54139;SDS011;40046;53.254;5.900;2022-12-18T01:39:05;67.28;;;34.22;;
54139;SDS011;40046;53.254;5.900;2022-12-18T01:41:32;68.32;;;32.75;;
54139;SDS011;40046;53.254;5.900;2022-12-18T01:47:02;72.40;;;31.05;;
54139;SDS011;40046;53.254;5.900;2022-12-18T01:49:28;69.07;;;31.63;;
54139;SDS011;40046;53.254;5.900;2022-12-18T01:51:54;68.57;;;32.63;;
54139;SDS011;40046;53.254;5.900;2022-12-18T01:54:20;76.57;;;32.33;;
54139;SDS011;40046;53.254;5.900;2022-12-18T01:56:46;67.32;;;33.28;;
54139;SDS011;40046;53.254;5.900;2022-12-18T01:59:13;69.13;;;30.83;;
54139;SDS011;40046;53.254;5.900;2022-12-18T02:01:39;68.05;;;32.25;;
54139;SDS011;40046;53.254;5.900;2022-12-18T02:04:22;64.07;;;32.03;;
54139;SDS011;40046;53.254;5.900;2022-12-18T02:07:01;66.10;;;31.67;;
54139;SDS011;40046;53.254;5.900;2022-12-18T02:09:33;61.15;;;29.55;;
54139;SDS011;40046;53.254;5.900;2022-12-18T02:12:21;60.60;;;29.33;;
54139;SDS011;40046;53.254;5.900;2022-12-18T02:14:55;63.85;;;31.73;;
54139;SDS011;40046;53.254;5.900;2022-12-18T02:17:33;70.82;;;32.20;;
54139;SDS011;40046;53.254;5.900;2022-12-18T02:20:07;64.82;;;32.03;;
54139;SDS011;40046;53.254;5.900;2022-12-18T02:27:28;61.10;;;30.88;;
54139;SDS011;40046;53.254;5.900;2022-12-18T02:29:57;66.82;;;31.63;;
54139;SDS011;40046;53.254;5.900;2022-12-18T02:32:28;63.38;;;29.55;;
54139;SDS011;40046;53.254;5.900;2022-12-18T02:34:56;69.20;;;31.90;;
54139;SDS011;40046;53.254;5.900;2022-12-18T02:37:26;69.75;;;33.90;;
54139;SDS011;40046;53.254;5.900;2022-12-18T02:39:54;75.68;;;32.10;;
54139;SDS011;40046;53.254;5.900;2022-12-18T02:42:22;67.90;;;31.73;;
54139;SDS011;40046;53.254;5.900;2022-12-18T02:44:49;69.53;;;32.78;;
54139;SDS011;40046;53.254;5.900;2022-12-18T02:47:22;66.47;;;30.85;;
54139;SDS011;40046;53.254;5.900;2022-12-18T02:57:53;65.28;;;31.48;;
54139;SDS011;40046;53.254;5.900;2022-12-18T03:00:25;69.18;;;32.08;;
54139;SDS011;40046;53.254;5.900;2022-12-18T03:02:59;67.80;;;30.83;;
54139;SDS011;40046;53.254;5.900;2022-12-18T03:05:31;71.00;;;31.45;;
54139;SDS011;40046;53.254;5.900;2022-12-18T03:08:02;60.95;;;29.10;;
54139;SDS011;40046;53.254;5.900;2022-12-18T03:10:35;67.97;;;30.35;;
54139;SDS011;40046;53.254;5.900;2022-12-18T03:13:04;75.40;;;30.48;;
54139;SDS011;40046;53.254;5.900;2022-12-18T03:15:34;66.22;;;30.88;;
54139;SDS011;40046;53.254;5.900;2022-12-18T03:18:54;78.10;;;31.52;;
54139;SDS011;40046;53.254;5.900;2022-12-18T03:20:53;68.35;;;30.95;;
54139;SDS011;40046;53.254;5.900;2022-12-18T03:23:23;61.35;;;26.95;;
54139;SDS011;40046;53.254;5.900;2022-12-18T03:25:51;66.53;;;29.90;;
54139;SDS011;40046;53.254;5.900;2022-12-18T03:28:22;70.05;;;33.03;;
54139;SDS011;40046;53.254;5.900;2022-12-18T03:30:55;71.68;;;31.02;;
54139;SDS011;40046;53.254;5.900;2022-12-18T03:33:27;69.10;;;30.58;;
54139;SDS011;40046;53.254;5.900;2022-12-18T03:35:56;67.43;;;29.17;;
54139;SDS011;40046;53.254;5.900;2022-12-18T03:38:22;59.95;;;27.98;;
54139;SDS011;40046;53.254;5.900;2022-12-18T03:46:46;67.68;;;31.52;;
54139;SDS011;40046;53.254;5.900;2022-12-18T03:49:17;66.93;;;30.70;;
54139;SDS011;40046;53.254;5.900;2022-12-18T03:51:50;74.07;;;30.42;;
54139;SDS011;40046;53.254;5.900;2022-12-18T03:54:18;71.30;;;29.40;;
54139;SDS011;40046;53.254;5.900;2022-12-18T03:56:57;63.58;;;29.13;;
54139;SDS011;40046;53.254;5.900;2022-12-18T03:59:24;67.03;;;30.52;;
54139;SDS011;40046;53.254;5.900;2022-12-18T04:01:52;71.45;;;31.05;;
54139;SDS011;40046;53.254;5.900;2022-12-18T04:04:20;70.25;;;33.28;;
54139;SDS011;40046;53.254;5.900;2022-12-18T04:06:47;73.43;;;31.20;;
54139;SDS011;40046;53.254;5.900;2022-12-18T04:09:17;74.38;;;32.83;;
54139;SDS011;40046;53.254;5.900;2022-12-18T04:11:45;68.43;;;31.60;;
54139;SDS011;40046;53.254;5.900;2022-12-18T04:14:13;76.60;;;33.72;;
54139;SDS011;40046;53.254;5.900;2022-12-18T04:16:40;67.13;;;31.75;;
54139;SDS011;40046;53.254;5.900;2022-12-18T04:19:10;68.72;;;32.60;;
54139;SDS011;40046;53.254;5.900;2022-12-18T04:21:39;66.68;;;31.63;;
54139;SDS011;40046;53.254;5.900;2022-12-18T04:24:08;67.25;;;29.38;;
54139;SDS011;40046;53.254;5.900;2022-12-18T04:26:38;70.25;;;29.55;;
54139;SDS011;40046;53.254;5.900;2022-12-18T04:29:11;74.00;;;30.52;;
54139;SDS011;40046;53.254;5.900;2022-12-18T04:31:38;70.63;;;33.25;;
54139;SDS011;40046;53.254;5.900;2022-12-18T04:34:04;70.38;;;31.65;;
54139;SDS011;40046;53.254;5.900;2022-12-18T04:36:36;78.88;;;36.35;;
54139;SDS011;40046;53.254;5.900;2022-12-18T04:39:03;73.80;;;31.27;;
54139;SDS011;40046;53.254;5.900;2022-12-18T04:41:32;70.85;;;32.60;;
54139;SDS011;40046;53.254;5.900;2022-12-18T04:43:59;68.60;;;29.58;;
54139;SDS011;40046;53.254;5.900;2022-12-18T04:46:25;70.80;;;32.22;;
54139;SDS011;40046;53.254;5.900;2022-12-18T04:48:51;73.43;;;31.42;;
54139;SDS011;40046;53.254;5.900;2022-12-18T04:51:17;74.93;;;33.33;;
54139;SDS011;40046;53.254;5.900;2022-12-18T04:53:44;70.80;;;33.20;;
54139;SDS011;40046;53.254;5.900;2022-12-18T04:56:11;70.03;;;30.65;;
54139;SDS011;40046;53.254;5.900;2022-12-18T04:58:38;69.20;;;31.35;;
54139;SDS011;40046;53.254;5.900;2022-12-18T05:01:04;65.68;;;30.67;;
54139;SDS011;40046;53.254;5.900;2022-12-18T05:03:31;63.38;;;31.90;;
54139;SDS011;40046;53.254;5.900;2022-12-18T05:05:57;71.88;;;30.85;;
54139;SDS011;40046;53.254;5.900;2022-12-18T05:08:23;72.68;;;33.20;;
54139;SDS011;40046;53.254;5.900;2022-12-18T05:10:49;67.45;;;31.35;;
54139;SDS011;40046;53.254;5.900;2022-12-18T05:13:15;69.47;;;31.00;;
54139;SDS011;40046;53.254;5.900;2022-12-18T05:15:41;65.28;;;29.95;;
54139;SDS011;40046;53.254;5.900;2022-12-18T05:18:08;67.38;;;31.63;;
54139;SDS011;40046;53.254;5.900;2022-12-18T05:20:34;74.45;;;31.73;;
54139;SDS011;40046;53.254;5.900;2022-12-18T05:23:00;66.45;;;29.52;;
54139;SDS011;40046;53.254;5.900;2022-12-18T05:25:26;67.28;;;29.73;;
54139;SDS011;40046;53.254;5.900;2022-12-18T05:27:52;71.78;;;32.83;;
54139;SDS011;40046;53.254;5.900;2022-12-18T05:30:19;68.75;;;30.45;;
54139;SDS011;40046;53.254;5.900;2022-12-18T05:32:45;69.13;;;29.17;;
54139;SDS011;40046;53.254;5.900;2022-12-18T05:35:11;61.60;;;30.13;;
54139;SDS011;40046;53.254;5.900;2022-12-18T05:37:37;62.97;;;31.83;;
54139;SDS011;40046;53.254;5.900;2022-12-18T05:40:04;61.92;;;29.33;;
54139;SDS011;40046;53.254;5.900;2022-12-18T05:42:30;62.95;;;29.08;;
54139;SDS011;40046;53.254;5.900;2022-12-18T05:45:05;59.90;;;28.50;;
54139;SDS011;40046;53.254;5.900;2022-12-18T05:47:31;67.68;;;29.85;;
54139;SDS011;40046;53.254;5.900;2022-12-18T05:49:57;63.00;;;30.05;;
54139;SDS011;40046;53.254;5.900;2022-12-18T05:52:23;67.03;;;29.70;;
54139;SDS011;40046;53.254;5.900;2022-12-18T05:54:50;61.55;;;28.67;;
54139;SDS011;40046;53.254;5.900;2022-12-18T05:57:16;64.47;;;28.80;;
54139;SDS011;40046;53.254;5.900;2022-12-18T05:59:42;63.90;;;27.17;;
54139;SDS011;40046;53.254;5.900;2022-12-18T06:02:08;65.80;;;29.60;;
54139;SDS011;40046;53.254;5.900;2022-12-18T06:04:35;60.45;;;28.15;;
54139;SDS011;40046;53.254;5.900;2022-12-18T06:07:01;66.00;;;28.67;;
54139;SDS011;40046;53.254;5.900;2022-12-18T06:09:28;57.83;;;27.02;;
54139;SDS011;40046;53.254;5.900;2022-12-18T06:11:54;60.67;;;28.48;;
54139;SDS011;40046;53.254;5.900;2022-12-18T06:14:20;53.22;;;25.58;;
54139;SDS011;40046;53.254;5.900;2022-12-18T06:16:47;50.03;;;25.02;;
54139;SDS011;40046;53.254;5.900;2022-12-18T06:19:16;54.92;;;25.77;;
54139;SDS011;40046;53.254;5.900;2022-12-18T06:21:42;60.05;;;25.63;;
54139;SDS011;40046;53.254;5.900;2022-12-18T06:24:09;57.55;;;23.33;;
54139;SDS011;40046;53.254;5.900;2022-12-18T06:26:36;51.35;;;25.05;;
54139;SDS011;40046;53.254;5.900;2022-12-18T06:29:03;62.72;;;25.75;;
54139;SDS011;40046;53.254;5.900;2022-12-18T06:31:29;50.92;;;24.52;;
54139;SDS011;40046;53.254;5.900;2022-12-18T06:33:55;52.58;;;25.73;;
54139;SDS011;40046;53.254;5.900;2022-12-18T06:36:21;51.92;;;25.50;;
54139;SDS011;40046;53.254;5.900;2022-12-18T06:38:47;54.05;;;24.55;;
54139;SDS011;40046;53.254;5.900;2022-12-18T06:41:15;59.60;;;27.15;;
54139;SDS011;40046;53.254;5.900;2022-12-18T06:43:42;50.45;;;23.88;;
54139;SDS011;40046;53.254;5.900;2022-12-18T06:46:08;55.88;;;25.95;;
54139;SDS011;40046;53.254;5.900;2022-12-18T06:48:35;48.83;;;23.50;;
54139;SDS011;40046;53.254;5.900;2022-12-18T06:51:01;52.22;;;23.73;;
54139;SDS011;40046;53.254;5.900;2022-12-18T06:53:27;54.20;;;23.73;;
54139;SDS011;40046;53.254;5.900;2022-12-18T06:56:00;47.35;;;23.85;;
54139;SDS011;40046;53.254;5.900;2022-12-18T06:58:27;55.85;;;24.40;;
54139;SDS011;40046;53.254;5.900;2022-12-18T07:00:53;53.25;;;24.80;;
54139;SDS011;40046;53.254;5.900;2022-12-18T07:03:19;44.17;;;21.65;;
54139;SDS011;40046;53.254;5.900;2022-12-18T07:05:46;44.72;;;23.98;;
54139;SDS011;40046;53.254;5.900;2022-12-18T07:08:12;48.03;;;23.15;;
54139;SDS011;40046;53.254;5.900;2022-12-18T07:10:42;48.28;;;21.58;;
54139;SDS011;40046;53.254;5.900;2022-12-18T07:13:08;42.13;;;21.00;;
54139;SDS011;40046;53.254;5.900;2022-12-18T07:15:34;47.60;;;21.42;;
54139;SDS011;40046;53.254;5.900;2022-12-18T07:18:00;44.70;;;22.95;;
54139;SDS011;40046;53.254;5.900;2022-12-18T07:20:26;47.33;;;21.10;;
54139;SDS011;40046;53.254;5.900;2022-12-18T07:22:52;47.42;;;21.40;;
54139;SDS011;40046;53.254;5.900;2022-12-18T07:25:18;43.33;;;22.08;;
54139;SDS011;40046;53.254;5.900;2022-12-18T07:27:45;49.25;;;23.75;;
54139;SDS011;40046;53.254;5.900;2022-12-18T07:30:11;43.45;;;20.33;;
54139;SDS011;40046;53.254;5.900;2022-12-18T07:32:37;37.90;;;20.08;;
54139;SDS011;40046;53.254;5.900;2022-12-18T07:35:03;44.58;;;21.02;;
54139;SDS011;40046;53.254;5.900;2022-12-18T07:37:30;38.92;;;18.83;;
54139;SDS011;40046;53.254;5.900;2022-12-18T07:39:56;35.15;;;18.67;;
54139;SDS011;40046;53.254;5.900;2022-12-18T07:42:22;40.05;;;21.10;;
54139;SDS011;40046;53.254;5.900;2022-12-18T07:45:00;41.15;;;19.55;;
54139;SDS011;40046;53.254;5.900;2022-12-18T07:47:29;37.58;;;18.27;;
54139;SDS011;40046;53.254;5.900;2022-12-18T07:49:55;40.35;;;19.45;;
54139;SDS011;40046;53.254;5.900;2022-12-18T07:52:21;38.00;;;19.67;;
54139;SDS011;40046;53.254;5.900;2022-12-18T07:54:47;39.35;;;18.48;;
54139;SDS011;40046;53.254;5.900;2022-12-18T07:57:16;37.15;;;19.25;;
54139;SDS011;40046;53.254;5.900;2022-12-18T07:59:43;42.03;;;20.00;;
54139;SDS011;40046;53.254;5.900;2022-12-18T08:02:09;33.80;;;18.15;;
54139;SDS011;40046;53.254;5.900;2022-12-18T08:04:35;38.90;;;18.95;;
54139;SDS011;40046;53.254;5.900;2022-12-18T08:07:01;40.85;;;17.58;;
54139;SDS011;40046;53.254;5.900;2022-12-18T08:09:27;39.55;;;19.25;;
54139;SDS011;40046;53.254;5.900;2022-12-18T08:11:54;40.78;;;18.25;;
54139;SDS011;40046;53.254;5.900;2022-12-18T08:14:20;40.08;;;18.77;;
54139;SDS011;40046;53.254;5.900;2022-12-18T08:16:46;35.40;;;18.70;;
54139;SDS011;40046;53.254;5.900;2022-12-18T08:19:12;39.88;;;19.23;;
54139;SDS011;40046;53.254;5.900;2022-12-18T08:21:38;37.92;;;18.90;;
54139;SDS011;40046;53.254;5.900;2022-12-18T08:24:05;35.25;;;17.70;;
54139;SDS011;40046;53.254;5.900;2022-12-18T08:26:31;41.08;;;19.02;;
54139;SDS011;40046;53.254;5.900;2022-12-18T08:28:58;37.20;;;17.55;;
54139;SDS011;40046;53.254;5.900;2022-12-18T08:31:24;31.38;;;16.77;;
54139;SDS011;40046;53.254;5.900;2022-12-18T08:33:51;37.08;;;18.85;;
54139;SDS011;40046;53.254;5.900;2022-12-18T08:36:18;36.63;;;19.55;;
54139;SDS011;40046;53.254;5.900;2022-12-18T08:38:45;36.40;;;19.75;;
54139;SDS011;40046;53.254;5.900;2022-12-18T08:41:12;36.95;;;18.25;;
54139;SDS011;40046;53.254;5.900;2022-12-18T08:43:38;33.28;;;16.02;;
54139;SDS011;40046;53.254;5.900;2022-12-18T08:46:24;35.47;;;17.65;;
54139;SDS011;40046;53.254;5.900;2022-12-18T08:48:51;37.78;;;18.55;;
54139;SDS011;40046;53.254;5.900;2022-12-18T08:51:18;32.05;;;17.33;;
54139;SDS011;40046;53.254;5.900;2022-12-18T08:53:44;30.33;;;15.80;;
54139;SDS011;40046;53.254;5.900;2022-12-18T08:56:11;39.55;;;17.33;;
54139;SDS011;40046;53.254;5.900;2022-12-18T08:58:37;31.58;;;16.90;;
54139;SDS011;40046;53.254;5.900;2022-12-18T09:01:04;32.92;;;17.77;;
54139;SDS011;40046;53.254;5.900;2022-12-18T09:03:30;30.17;;;16.48;;
54139;SDS011;40046;53.254;5.900;2022-12-18T09:05:56;32.20;;;16.60;;
54139;SDS011;40046;53.254;5.900;2022-12-18T09:08:23;31.52;;;16.95;;
54139;SDS011;40046;53.254;5.900;2022-12-18T09:10:49;33.20;;;17.38;;
54139;SDS011;40046;53.254;5.900;2022-12-18T09:13:16;34.20;;;18.58;;
54139;SDS011;40046;53.254;5.900;2022-12-18T09:15:43;33.55;;;17.83;;
54139;SDS011;40046;53.254;5.900;2022-12-18T09:18:10;38.10;;;17.45;;
54139;SDS011;40046;53.254;5.900;2022-12-18T09:20:37;33.65;;;16.05;;
54139;SDS011;40046;53.254;5.900;2022-12-18T09:23:04;33.70;;;15.93;;
54139;SDS011;40046;53.254;5.900;2022-12-18T09:25:30;25.58;;;16.20;;
54139;SDS011;40046;53.254;5.900;2022-12-18T09:28:05;34.60;;;17.20;;
54139;SDS011;40046;53.254;5.900;2022-12-18T09:30:32;35.80;;;18.17;;
54139;SDS011;40046;53.254;5.900;2022-12-18T09:33:01;28.75;;;17.17;;
54139;SDS011;40046;53.254;5.900;2022-12-18T09:35:27;32.08;;;16.33;;
54139;SDS011;40046;53.254;5.900;2022-12-18T09:37:53;26.17;;;13.90;;
54139;SDS011;40046;53.254;5.900;2022-12-18T09:40:21;29.42;;;15.57;;
54139;SDS011;40046;53.254;5.900;2022-12-18T09:42:50;29.52;;;16.02;;
54139;SDS011;40046;53.254;5.900;2022-12-18T09:45:18;29.80;;;16.15;;
54139;SDS011;40046;53.254;5.900;2022-12-18T09:47:44;30.15;;;16.02;;
54139;SDS011;40046;53.254;5.900;2022-12-18T09:50:24;31.60;;;15.20;;
54139;SDS011;40046;53.254;5.900;2022-12-18T09:52:53;26.02;;;15.38;;
54139;SDS011;40046;53.254;5.900;2022-12-18T09:58:07;26.58;;;14.00;;
54139;SDS011;40046;53.254;5.900;2022-12-18T10:00:33;26.27;;;13.73;;
54139;SDS011;40046;53.254;5.900;2022-12-18T10:03:01;25.58;;;13.15;;
54139;SDS011;40046;53.254;5.900;2022-12-18T10:10:41;25.95;;;13.43;;
54139;SDS011;40046;53.254;5.900;2022-12-18T10:20:44;19.85;;;11.88;;
54139;SDS011;40046;53.254;5.900;2022-12-18T10:25:44;22.50;;;12.65;;
54139;SDS011;40046;53.254;5.900;2022-12-18T10:28:13;18.10;;;10.95;;
54139;SDS011;40046;53.254;5.900;2022-12-18T10:30:41;21.77;;;11.38;;
54139;SDS011;40046;53.254;5.900;2022-12-18T10:33:11;20.08;;;10.95;;
54139;SDS011;40046;53.254;5.900;2022-12-18T10:35:37;19.05;;;11.02;;
54139;SDS011;40046;53.254;5.900;2022-12-18T10:43:27;16.48;;;10.15;;
54139;SDS011;40046;53.254;5.900;2022-12-18T10:45:58;16.10;;;8.60;;
54139;SDS011;40046;53.254;5.900;2022-12-18T10:48:25;16.75;;;8.73;;
54139;SDS011;40046;53.254;5.900;2022-12-18T10:50:52;14.90;;;8.07;;
54139;SDS011;40046;53.254;5.900;2022-12-18T10:53:20;14.18;;;8.38;;
54139;SDS011;40046;53.254;5.900;2022-12-18T10:55:46;18.63;;;8.48;;
54139;SDS011;40046;53.254;5.900;2022-12-18T10:58:21;14.25;;;9.02;;
54139;SDS011;40046;53.254;5.900;2022-12-18T11:06:03;11.88;;;7.85;;
54139;SDS011;40046;53.254;5.900;2022-12-18T11:08:30;17.48;;;9.07;;
54139;SDS011;40046;53.254;5.900;2022-12-18T11:10:56;19.40;;;9.27;;
54139;SDS011;40046;53.254;5.900;2022-12-18T11:13:23;18.83;;;10.30;;
54139;SDS011;40046;53.254;5.900;2022-12-18T11:15:50;13.85;;;8.27;;
54139;SDS011;40046;53.254;5.900;2022-12-18T11:18:22;16.05;;;9.13;;
54139;SDS011;40046;53.254;5.900;2022-12-18T11:20:57;15.38;;;8.95;;
54139;SDS011;40046;53.254;5.900;2022-12-18T11:23:25;13.55;;;8.63;;
54139;SDS011;40046;53.254;5.900;2022-12-18T11:26:01;19.05;;;10.27;;
54139;SDS011;40046;53.254;5.900;2022-12-18T11:33:36;17.48;;;9.35;;
54139;SDS011;40046;53.254;5.900;2022-12-18T11:36:03;17.27;;;10.20;;
54139;SDS011;40046;53.254;5.900;2022-12-18T11:38:40;17.95;;;10.35;;
54139;SDS011;40046;53.254;5.900;2022-12-18T11:44:13;17.00;;;9.95;;
54139;SDS011;40046;53.254;5.900;2022-12-18T11:46:44;21.80;;;10.50;;
54139;SDS011;40046;53.254;5.900;2022-12-18T11:49:14;16.08;;;9.13;;
54139;SDS011;40046;53.254;5.900;2022-12-18T11:54:35;17.65;;;8.50;;
54139;SDS011;40046;53.254;5.900;2022-12-18T11:57:07;15.02;;;9.68;;
54139;SDS011;40046;53.254;5.900;2022-12-18T12:10:02;13.40;;;8.65;;
54139;SDS011;40046;53.254;5.900;2022-12-18T12:15:26;14.43;;;8.18;;
54139;SDS011;40046;53.254;5.900;2022-12-18T12:20:44;14.82;;;8.32;;
54139;SDS011;40046;53.254;5.900;2022-12-18T12:23:18;12.63;;;7.82;;
54139;SDS011;40046;53.254;5.900;2022-12-18T12:25:50;12.57;;;7.57;;
54139;SDS011;40046;53.254;5.900;2022-12-18T12:31:10;12.32;;;7.00;;
54139;SDS011;40046;53.254;5.900;2022-12-18T12:33:53;12.55;;;7.20;;
54139;SDS011;40046;53.254;5.900;2022-12-18T12:36:25;11.93;;;7.43;;
54139;SDS011;40046;53.254;5.900;2022-12-18T12:38:56;11.90;;;6.85;;
54139;SDS011;40046;53.254;5.900;2022-12-18T12:41:24;12.93;;;8.00;;
54139;SDS011;40046;53.254;5.900;2022-12-18T12:44:17;11.88;;;7.63;;
54139;SDS011;40046;53.254;5.900;2022-12-18T12:46:44;12.38;;;6.78;;
54139;SDS011;40046;53.254;5.900;2022-12-18T12:49:12;11.88;;;6.30;;
54139;SDS011;40046;53.254;5.900;2022-12-18T12:51:43;10.88;;;6.75;;
54139;SDS011;40046;53.254;5.900;2022-12-18T12:54:12;11.13;;;6.43;;
54139;SDS011;40046;53.254;5.900;2022-12-18T12:56:49;11.05;;;6.25;;
54139;SDS011;40046;53.254;5.900;2022-12-18T13:12:23;10.80;;;6.65;;
54139;SDS011;40046;53.254;5.900;2022-12-18T13:15:12;9.32;;;6.47;;
54139;SDS011;40046;53.254;5.900;2022-12-18T13:17:39;14.93;;;6.90;;
54139;SDS011;40046;53.254;5.900;2022-12-18T13:20:10;14.15;;;5.85;;
54139;SDS011;40046;53.254;5.900;2022-12-18T13:22:46;14.30;;;6.70;;
54139;SDS011;40046;53.254;5.900;2022-12-18T13:25:33;9.80;;;6.07;;
54139;SDS011;40046;53.254;5.900;2022-12-18T13:40:53;11.60;;;6.82;;
54139;SDS011;40046;53.254;5.900;2022-12-18T13:48:32;10.23;;;5.78;;
54139;SDS011;40046;53.254;5.900;2022-12-18T13:51:05;8.70;;;5.20;;
54139;SDS011;40046;53.254;5.900;2022-12-18T13:55:58;9.00;;;5.38;;
54139;SDS011;40046;53.254;5.900;2022-12-18T13:58:25;8.20;;;5.45;;
54139;SDS011;40046;53.254;5.900;2022-12-18T14:00:51;8.20;;;4.32;;
54139;SDS011;40046;53.254;5.900;2022-12-18T14:03:18;9.00;;;4.63;;
54139;SDS011;40046;53.254;5.900;2022-12-18T14:05:44;10.27;;;5.15;;
54139;SDS011;40046;53.254;5.900;2022-12-18T14:08:14;9.60;;;4.68;;
54139;SDS011;40046;53.254;5.900;2022-12-18T14:10:41;7.72;;;4.68;;
54139;SDS011;40046;53.254;5.900;2022-12-18T14:13:08;9.20;;;5.28;;
54139;SDS011;40046;53.254;5.900;2022-12-18T14:15:38;7.90;;;4.60;;
54139;SDS011;40046;53.254;5.900;2022-12-18T14:20:41;9.65;;;4.97;;
54139;SDS011;40046;53.254;5.900;2022-12-18T14:26:21;6.95;;;3.95;;
54139;SDS011;40046;53.254;5.900;2022-12-18T14:28:47;8.48;;;4.85;;
54139;SDS011;40046;53.254;5.900;2022-12-18T14:31:17;9.02;;;5.47;;
54139;SDS011;40046;53.254;5.900;2022-12-18T14:33:44;11.77;;;5.53;;
54139;SDS011;40046;53.254;5.900;2022-12-18T14:36:18;10.50;;;5.00;;
54139;SDS011;40046;53.254;5.900;2022-12-18T14:41:14;8.40;;;4.68;;
54139;SDS011;40046;53.254;5.900;2022-12-18T14:43:41;10.60;;;5.18;;
54139;SDS011;40046;53.254;5.900;2022-12-18T14:48:53;9.52;;;4.63;;
54139;SDS011;40046;53.254;5.900;2022-12-18T14:51:20;13.30;;;4.80;;
54139;SDS011;40046;53.254;5.900;2022-12-18T14:53:49;8.65;;;4.82;;
54139;SDS011;40046;53.254;5.900;2022-12-18T14:56:26;10.23;;;5.38;;
54139;SDS011;40046;53.254;5.900;2022-12-18T15:01:35;14.27;;;7.38;;
54139;SDS011;40046;53.254;5.900;2022-12-18T15:04:03;16.27;;;9.55;;
54139;SDS011;40046;53.254;5.900;2022-12-18T15:06:33;16.48;;;11.20;;
54139;SDS011;40046;53.254;5.900;2022-12-18T15:09:01;12.10;;;7.97;;
54139;SDS011;40046;53.254;5.900;2022-12-18T15:11:35;10.95;;;7.35;;
54139;SDS011;40046;53.254;5.900;2022-12-18T15:16:51;11.07;;;7.05;;
54139;SDS011;40046;53.254;5.900;2022-12-18T15:19:18;11.90;;;6.07;;
54139;SDS011;40046;53.254;5.900;2022-12-18T15:21:44;10.02;;;6.20;;
54139;SDS011;40046;53.254;5.900;2022-12-18T15:24:21;9.23;;;5.78;;
54139;SDS011;40046;53.254;5.900;2022-12-18T15:26:48;12.90;;;7.47;;
54139;SDS011;40046;53.254;5.900;2022-12-18T15:29:17;13.10;;;8.27;;
54139;SDS011;40046;53.254;5.900;2022-12-18T15:31:45;9.55;;;6.63;;
54139;SDS011;40046;53.254;5.900;2022-12-18T15:34:23;9.45;;;5.85;;
54139;SDS011;40046;53.254;5.900;2022-12-18T15:36:51;15.00;;;6.88;;
54139;SDS011;40046;53.254;5.900;2022-12-18T15:39:17;9.13;;;5.65;;
54139;SDS011;40046;53.254;5.900;2022-12-18T15:41:43;9.77;;;6.15;;
54139;SDS011;40046;53.254;5.900;2022-12-18T15:44:31;9.88;;;6.13;;
54139;SDS011;40046;53.254;5.900;2022-12-18T15:46:57;9.45;;;5.18;;
54139;SDS011;40046;53.254;5.900;2022-12-18T15:49:24;10.38;;;5.47;;
54139;SDS011;40046;53.254;5.900;2022-12-18T15:51:54;12.98;;;5.00;;
54139;SDS011;40046;53.254;5.900;2022-12-18T15:54:21;10.05;;;5.43;;
54139;SDS011;40046;53.254;5.900;2022-12-18T15:57:09;16.55;;;8.82;;
54139;SDS011;40046;53.254;5.900;2022-12-18T15:59:51;31.85;;;20.13;;
54139;SDS011;40046;53.254;5.900;2022-12-18T16:02:18;15.50;;;8.02;;
54139;SDS011;40046;53.254;5.900;2022-12-18T16:04:45;9.63;;;5.95;;
54139;SDS011;40046;53.254;5.900;2022-12-18T16:07:11;9.40;;;5.72;;
54139;SDS011;40046;53.254;5.900;2022-12-18T16:09:37;9.82;;;5.55;;
54139;SDS011;40046;53.254;5.900;2022-12-18T16:12:04;11.32;;;6.90;;
54139;SDS011;40046;53.254;5.900;2022-12-18T16:14:31;11.02;;;6.57;;
54139;SDS011;40046;53.254;5.900;2022-12-18T16:16:59;11.80;;;5.70;;
54139;SDS011;40046;53.254;5.900;2022-12-18T16:19:26;8.95;;;5.60;;
54139;SDS011;40046;53.254;5.900;2022-12-18T16:21:52;10.63;;;6.95;;
54139;SDS011;40046;53.254;5.900;2022-12-18T16:24:27;11.85;;;5.88;;
54139;SDS011;40046;53.254;5.900;2022-12-18T16:29:20;16.52;;;9.18;;
54139;SDS011;40046;53.254;5.900;2022-12-18T16:31:52;58.42;;;30.52;;
54139;SDS011;40046;53.254;5.900;2022-12-18T16:34:25;39.97;;;24.63;;
54139;SDS011;40046;53.254;5.900;2022-12-18T16:36:56;18.70;;;10.52;;
54139;SDS011;40046;53.254;5.900;2022-12-18T16:39:24;21.23;;;12.30;;
54139;SDS011;40046;53.254;5.900;2022-12-18T16:41:51;43.95;;;26.90;;
54139;SDS011;40046;53.254;5.900;2022-12-18T16:44:17;21.77;;;14.90;;
54139;SDS011;40046;53.254;5.900;2022-12-18T16:46:43;21.92;;;15.90;;